Kentfield, California
Current Conditions -  °F | °C
As of 12:15 PM on Friday 31 Oct 2014 (Local Time) from KDVO Reporting Station
Overcast Overcast  
Wind Chill: 57°   Ceiling: 4800
Heat Index: 57°   Visibility: NA
Dew Point: 55°   Wind: 5mph
Humidity: 94%   Direction: 320°NW
Pressure: 29.86"   Gusts: NA
Location:  37.95°N, 122.54°W
Report Text: KDVO 311915Z AUTO 32004KT OVC048 14/13 A2986 RMK AO2
Loading
Personal Weather Stations






























Interactive Weather Map
Tropical Storm Tracking
New forecast layout! Learn more

10-Day Weather Forecast

Advertisements
Track Severe Weather on mobile